createdAt,value
2022-09-20T00:01:36.230Z,-26
2022-09-20T00:03:37.204Z,-26
2022-09-20T00:05:38.193Z,-26.1
2022-09-20T00:07:39.478Z,-25.9
2022-09-20T00:09:40.634Z,-26.1
2022-09-20T00:11:41.695Z,-25.9
2022-09-20T00:13:42.666Z,-26
2022-09-20T00:15:44.171Z,-25.8
2022-09-20T00:17:45.325Z,-26
2022-09-20T00:19:46.483Z,-25.7
2022-09-20T00:21:48.438Z,-25.7
2022-09-20T00:23:49.642Z,-25.9
2022-09-20T00:29:54.093Z,-26.1
2022-09-20T00:31:56.010Z,-26
2022-09-20T00:33:57.083Z,-26
2022-09-20T00:35:58.678Z,-25.8
2022-09-20T00:38:00.619Z,-26
2022-09-20T00:40:01.666Z,-26.1
2022-09-20T00:44:03.719Z,-26
2022-09-20T00:46:04.707Z,-26.1
2022-09-20T00:48:05.884Z,-25.9
2022-09-20T00:50:06.999Z,-26.1
2022-09-20T00:56:12.592Z,-26.1
2022-09-20T00:58:14.556Z,-25.9
2022-09-20T01:00:15.811Z,-26
2022-09-20T01:02:16.862Z,-26.3
2022-09-20T01:04:18.334Z,-26.3
2022-09-20T01:06:19.435Z,-26
2022-09-20T01:08:20.734Z,-26
2022-09-20T01:10:21.934Z,-26.5
2022-09-20T01:12:23.614Z,-26.6
2022-09-20T01:14:25.279Z,-26.7
2022-09-20T01:16:26.862Z,-26.7
2022-09-20T01:18:27.842Z,-26.7
2022-09-20T01:20:29.564Z,-26.6
2022-09-20T01:22:30.817Z,-26.6
2022-09-20T01:24:32.278Z,-26.6
2022-09-20T01:26:33.909Z,-26.6
2022-09-20T01:28:35.774Z,-26.4
2022-09-20T01:30:37.383Z,-26.8
2022-09-20T01:32:39.193Z,-26.7
2022-09-20T01:34:40.336Z,-27
2022-09-20T01:38:43.479Z,-27.1
2022-09-20T01:42:46.465Z,-27
2022-09-20T01:44:48.083Z,-26.9
2022-09-20T01:46:49.355Z,-26.8
2022-09-20T01:48:51.185Z,-26.7
2022-09-20T01:52:53.629Z,-27.1
2022-09-20T01:54:55.036Z,-27.2
2022-09-20T01:56:56.791Z,-27
2022-09-20T01:59:19.680Z,-27.4
2022-09-20T02:01:00.199Z,-27.1
2022-09-20T02:03:01.894Z,-27.4
2022-09-20T02:05:03.648Z,-26.9
2022-09-20T02:07:05.122Z,-27.3
2022-09-20T02:09:06.200Z,-27.4
2022-09-20T02:11:08.053Z,-27
2022-09-20T02:13:09.129Z,-27
2022-09-20T02:15:10.653Z,-27.3
2022-09-20T02:17:12.037Z,-27.1
2022-09-20T02:19:13.228Z,-25.5
2022-09-20T02:21:14.208Z,-25.9
2022-09-20T02:23:15.365Z,-25.7
2022-09-20T02:25:16.415Z,-25.6
2022-09-20T02:27:17.767Z,-25.5
2022-09-20T02:29:19.460Z,-25.5
2022-09-20T02:31:21.040Z,-25.7
2022-09-20T02:33:22.257Z,-25.6
2022-09-20T02:35:23.532Z,-25.6
2022-09-20T02:37:25.150Z,-25.3
2022-09-20T02:39:26.329Z,-25.4
2022-09-20T02:41:27.411Z,-25.5
2022-09-20T02:43:29.161Z,-25.6
2022-09-20T02:45:30.305Z,-25.7
2022-09-20T02:47:32.123Z,-25.7
2022-09-20T02:49:34.021Z,-25.8
2022-09-20T02:51:35.275Z,-25.6
2022-09-20T02:53:36.838Z,-27
2022-09-20T02:55:37.924Z,-27.2
2022-09-20T02:57:39.012Z,-26.9
2022-09-20T02:59:40.017Z,-26.8
2022-09-20T03:01:49.022Z,-27.1
2022-09-20T03:03:42.013Z,-27.1
2022-09-20T03:07:45.865Z,-27.3
2022-09-20T03:09:47.623Z,-27.2
2022-09-20T03:13:50.465Z,-27.1
2022-09-20T03:15:52.119Z,-27.2
2022-09-20T03:17:53.972Z,-27
2022-09-20T03:19:55.252Z,-27.1
2022-09-20T03:21:56.882Z,-27
2022-09-20T03:23:57.961Z,-27.2
2022-09-20T03:25:59.474Z,-27.3
2022-09-20T03:28:00.494Z,-27.1
2022-09-20T03:30:02.411Z,-26.9
2022-09-20T03:34:04.949Z,-27.3
2022-09-20T03:36:06.841Z,-27.4
2022-09-20T03:38:07.893Z,-27.3
2022-09-20T03:40:09.452Z,-27.3
2022-09-20T03:44:12.382Z,-25.8
2022-09-20T03:46:13.562Z,-25.8
2022-09-20T03:50:16.796Z,-25.8
2022-09-20T03:52:18.222Z,-25.5
2022-09-20T03:54:19.680Z,-25.6
2022-09-20T03:56:21.472Z,-25.5
2022-09-20T04:01:18.012Z,-25.3
2022-09-20T04:03:19.604Z,-25.5
2022-09-20T04:05:21.574Z,-25.6
2022-09-20T04:07:22.983Z,-25.7
2022-09-20T04:09:24.763Z,-25.5
2022-09-20T04:11:26.559Z,-25.6
2022-09-20T04:13:27.581Z,-25.6
2022-09-20T04:15:29.198Z,-25.5
2022-09-20T04:17:31.154Z,-25.5
2022-09-20T04:19:33.123Z,-25.6
2022-09-20T04:21:33.914Z,-25.5
2022-09-20T04:23:35.738Z,-25.6
2022-09-20T04:25:38.903Z,-25.5
2022-09-20T04:27:38.243Z,-25.5
2022-09-20T04:29:39.773Z,-25.5
2022-09-20T04:31:41.139Z,-25.6
2022-09-20T04:33:42.876Z,-25.6
2022-09-20T04:35:44.332Z,-25.4
2022-09-20T04:39:48.196Z,-25.3
2022-09-20T04:41:50.169Z,-25.4
2022-09-20T04:43:51.553Z,-25.5
2022-09-20T04:45:53.596Z,-25.6
2022-09-20T04:47:54.514Z,-25.5
2022-09-20T04:49:56.183Z,-25.8
2022-09-20T04:51:57.757Z,-25.3
2022-09-20T04:53:58.755Z,-25.5
2022-09-20T04:55:59.923Z,-25.4
2022-09-20T04:58:01.662Z,-25.5
2022-09-20T05:00:03.364Z,-25.4
2022-09-20T05:02:04.395Z,-25.6
2022-09-20T05:04:05.410Z,-25.5
2022-09-20T05:06:06.675Z,-25.7
2022-09-20T05:08:08.469Z,-25.5
2022-09-20T05:10:10.060Z,-25.7
2022-09-20T05:12:12.147Z,-25.5
2022-09-20T05:14:13.315Z,-25.5
2022-09-20T05:16:15.310Z,-25.3
2022-09-20T05:18:16.303Z,-25.7
2022-09-20T05:22:19.037Z,-25.6
2022-09-20T05:24:20.382Z,-25.8
2022-09-20T05:26:22.198Z,-25.7
2022-09-20T05:28:23.929Z,-25.5
2022-09-20T05:30:25.843Z,-25.3
2022-09-20T05:32:27.124Z,-25.8
2022-09-20T05:38:31.337Z,-25.3
2022-09-20T05:40:32.547Z,-25.4
2022-09-20T05:42:33.625Z,-25.6
2022-09-20T05:44:34.710Z,-25.4
2022-09-20T05:46:36.173Z,-25.4
2022-09-20T05:48:37.546Z,-25.5
2022-09-20T05:52:40.041Z,-24.7
2022-09-20T05:54:41.400Z,-25.6
2022-09-20T05:56:43.221Z,-25.5
2022-09-20T05:58:44.316Z,-25.5
2022-09-20T06:04:48.917Z,-25.5
2022-09-20T06:06:50.006Z,-25.5
2022-09-20T06:08:51.289Z,-25.2
2022-09-20T06:10:52.396Z,-25.2
2022-09-20T06:12:53.787Z,-23.4
2022-09-20T06:14:55.485Z,-24.3
2022-09-20T06:16:57.262Z,-17.6
2022-09-20T06:18:58.683Z,-11
2022-09-20T06:21:00.585Z,-9.1
2022-09-20T06:23:01.725Z,-8
2022-09-20T06:25:03.523Z,-8.5
2022-09-20T06:27:05.323Z,-3
2022-09-20T06:29:06.685Z,-6.3
2022-09-20T06:31:08.486Z,-5.3
2022-09-20T06:33:09.455Z,-4.19
2022-09-20T06:35:11.333Z,-4.1
2022-09-20T06:37:12.863Z,-4.3
2022-09-20T06:39:14.300Z,-5.6
2022-09-20T06:41:15.847Z,-3.9
2022-09-20T06:43:17.233Z,-3
2022-09-20T06:45:18.728Z,-2.3
2022-09-20T06:47:19.793Z,0.2
2022-09-20T06:51:23.117Z,-1.2
2022-09-20T06:53:24.509Z,-1.6
2022-09-20T06:55:29.110Z,-2.8
2022-09-20T06:57:27.975Z,-5.1
2022-09-20T07:03:32.479Z,-2.4
2022-09-20T07:05:33.847Z,-0.7
2022-09-20T07:07:35.374Z,0.5
2022-09-20T07:09:36.595Z,1.1
2022-09-20T07:11:38.092Z,2.2
2022-09-20T07:13:39.580Z,5.4
2022-09-20T07:17:42.645Z,14
2022-09-20T07:19:44.108Z,19.1
2022-09-20T07:21:45.807Z,20.7
2022-09-20T07:23:46.857Z,18.79
2022-09-20T07:25:48.738Z,19.29
2022-09-20T07:27:49.827Z,21.7
2022-09-20T07:29:51.570Z,24
2022-09-20T07:33:54.939Z,30.3
2022-09-20T07:35:56.404Z,32.7
2022-09-20T07:37:57.677Z,36.3
2022-09-20T07:39:59.543Z,37.09
2022-09-20T07:46:03.450Z,33.5
2022-09-20T07:48:04.323Z,31.1
2022-09-20T07:50:05.546Z,35
2022-09-20T07:52:07.360Z,71
2022-09-20T07:54:08.641Z,69.9
2022-09-20T07:56:09.842Z,68.8
2022-09-20T08:02:14.014Z,65.9
2022-09-20T08:04:15.496Z,65.1
2022-09-20T08:06:16.507Z,63.9
2022-09-20T08:08:17.549Z,62.7
2022-09-20T08:10:18.858Z,61.3
2022-09-20T08:14:21.313Z,58.7
2022-09-20T08:16:22.624Z,57
2022-09-20T08:18:23.764Z,55.8
2022-09-20T08:20:25.498Z,54.2
2022-09-20T08:22:26.549Z,52.7
2022-09-20T08:28:31.256Z,48.2
2022-09-20T08:32:33.570Z,44.5
2022-09-20T08:34:35.326Z,43.1
2022-09-20T08:36:37.281Z,41.6
2022-09-20T08:42:44.390Z,35.9
2022-09-20T08:44:45.227Z,35.8
2022-09-20T08:46:42.834Z,33.7
2022-09-20T08:48:44.981Z,31.2
2022-09-20T08:52:47.327Z,27.3
2022-09-20T08:54:49.096Z,25.2
2022-09-20T08:56:49.939Z,24.2
2022-09-20T08:58:51.238Z,23
2022-09-20T09:00:52.820Z,23.4
2022-09-20T09:02:53.812Z,21.7
2022-09-20T09:06:57.545Z,20.1
2022-09-20T09:08:58.911Z,16.5
2022-09-20T09:11:00.450Z,16.2
2022-09-20T09:15:02.847Z,15.4
2022-09-20T09:17:04.052Z,-25.4
2022-09-20T09:19:05.800Z,-25.6
2022-09-20T09:21:07.529Z,-25.5
2022-09-20T09:27:11.411Z,-25.4
2022-09-20T09:29:12.754Z,-25.4
2022-09-20T09:31:14.110Z,-25.3
2022-09-20T09:33:14.930Z,-25.3
2022-09-20T09:35:15.913Z,-25.4
2022-09-20T09:37:17.054Z,-25.7
2022-09-20T09:39:18.320Z,-25.6
2022-09-20T09:41:19.402Z,-25.5
2022-09-20T09:43:21.183Z,-25.4
2022-09-20T09:45:22.526Z,-25.8
2022-09-20T09:47:23.935Z,-25.6
2022-09-20T09:49:25.688Z,-25.7
2022-09-20T09:51:27.266Z,-25.6
2022-09-20T09:53:28.639Z,-26
2022-09-20T09:55:31.053Z,-25.8
2022-09-20T09:57:32.762Z,-26.1
2022-09-20T09:59:34.666Z,-25.7
2022-09-20T10:01:35.957Z,-25.8
2022-09-20T10:03:37.110Z,-25.5
2022-09-20T10:05:38.006Z,-25.6
2022-09-20T10:09:40.937Z,-25.5
2022-09-20T10:11:42.631Z,-25.7
2022-09-20T10:13:44.275Z,-25.5
2022-09-20T10:15:45.762Z,-25.4
2022-09-20T10:17:46.912Z,-25.7
2022-09-20T10:19:48.341Z,-25.5
2022-09-20T10:21:49.794Z,-25.8
2022-09-20T10:24:02.984Z,-25.5
2022-09-20T10:25:51.892Z,-25.5
2022-09-20T10:27:52.839Z,-25.4
2022-09-20T10:29:54.104Z,-25.9
2022-09-20T10:31:55.303Z,-25.4
2022-09-20T10:33:56.383Z,-25.6
2022-09-20T10:35:57.251Z,-25.9
2022-09-20T10:39:59.469Z,-25.6
2022-09-20T10:42:01.003Z,-25.7
2022-09-20T10:44:05.258Z,-25.6
2022-09-20T10:46:27.817Z,-25.9
2022-09-20T10:46:47.485Z,-25.4
2022-09-20T10:48:48.796Z,-26
2022-09-20T10:50:49.817Z,-26.1
2022-09-20T10:52:51.360Z,-25.7
2022-09-20T10:54:52.486Z,-26.1
2022-09-20T10:56:53.430Z,-26.2
2022-09-20T10:58:54.534Z,-25.7
2022-09-20T11:00:56.491Z,-25.7
2022-09-20T11:02:57.960Z,-25.9
2022-09-20T11:04:59.289Z,-25.6
2022-09-20T11:07:01.017Z,-25.7
2022-09-20T11:09:01.878Z,-25.9
2022-09-20T11:11:03.591Z,-25.9
2022-09-20T11:17:07.532Z,-25.9
2022-09-20T11:19:09.351Z,-25.7
2022-09-20T11:21:10.607Z,-25.9
2022-09-20T11:23:11.499Z,-25.7
2022-09-20T11:25:15.715Z,-25.7
2022-09-20T11:27:15.014Z,-25.7
2022-09-20T11:29:15.951Z,-25.7
2022-09-20T11:33:18.619Z,-25.8
2022-09-20T11:35:19.810Z,-25.8
2022-09-20T11:37:21.046Z,-25.8
2022-09-20T11:39:22.853Z,-25.5
2022-09-20T11:43:26.149Z,-25.9
2022-09-20T11:45:28.407Z,-25.5
2022-09-20T11:49:30.972Z,-25.9
2022-09-20T11:51:32.627Z,-25.9
2022-09-20T11:53:36.589Z,-25.7
2022-09-20T11:55:34.879Z,-25.8
2022-09-20T11:57:36.734Z,-25.8
2022-09-20T12:01:40.219Z,-25.8
2022-09-20T12:05:42.949Z,-25.9
2022-09-20T12:07:44.070Z,-25.8
2022-09-20T12:09:45.466Z,-25.8
2022-09-20T12:11:47.188Z,-25.4
2022-09-20T12:15:49.484Z,-25.6
2022-09-20T12:17:50.831Z,-25.7
2022-09-20T12:19:52.298Z,-25.6
2022-09-20T12:21:53.400Z,-25.8
2022-09-20T12:23:54.837Z,-26
2022-09-20T12:25:56.334Z,-25.8
2022-09-20T12:27:57.194Z,-25.7
2022-09-20T12:29:58.267Z,-25.8
2022-09-20T12:31:59.252Z,-25.8
2022-09-20T12:34:00.606Z,-25.7
2022-09-20T12:36:02.940Z,-25.9
2022-09-20T12:38:04.246Z,-25.7
2022-09-20T12:40:05.988Z,-25.9
2022-09-20T12:42:07.239Z,-25.7
2022-09-20T12:44:08.977Z,-25.8
2022-09-20T12:46:12.223Z,64.1
2022-09-20T12:48:12.191Z,61.7
2022-09-20T12:50:13.806Z,60.4
2022-09-20T12:52:14.970Z,58.5
2022-09-20T12:54:16.392Z,56.8
2022-09-20T12:56:17.621Z,52
2022-09-20T12:58:19.267Z,47.7
2022-09-20T13:00:20.463Z,43.6
2022-09-20T13:02:21.842Z,39.3
2022-09-20T13:04:23.339Z,37.2
2022-09-20T13:06:24.493Z,35.8
2022-09-20T13:08:26.246Z,33.7
2022-09-20T13:10:27.128Z,31.9
2022-09-20T13:16:30.274Z,23.7
2022-09-20T13:18:32.056Z,23.7
2022-09-20T13:20:33.885Z,20.1
2022-09-20T13:22:35.487Z,21.8
2022-09-20T13:24:36.523Z,19.7
2022-09-20T13:26:37.548Z,18
2022-09-20T13:30:39.412Z,15.9
2022-09-20T13:32:40.286Z,14.6
2022-09-20T13:34:41.726Z,15
2022-09-20T13:36:42.908Z,13.9
2022-09-20T13:42:46.150Z,12.2
2022-09-20T13:44:47.747Z,8.89
2022-09-20T13:46:49.575Z,-26
2022-09-20T13:48:50.633Z,-25.8
2022-09-20T13:50:53.720Z,-26.1
2022-09-20T13:52:53.425Z,-25.7
2022-09-20T13:54:54.294Z,-25.7
2022-09-20T13:56:55.171Z,-25.7
2022-09-20T13:58:56.838Z,-25.9
2022-09-20T14:02:59.685Z,-25.9
2022-09-20T14:05:01.121Z,-25.6
2022-09-20T14:07:02.020Z,-25.9
2022-09-20T14:09:06.025Z,-25.8
2022-09-20T14:11:05.302Z,-25.5
2022-09-20T14:13:06.822Z,-25.7
2022-09-20T14:15:07.697Z,-25.8
2022-09-20T14:17:09.083Z,-26.1
2022-09-20T14:19:09.936Z,-25.5
2022-09-20T14:21:11.636Z,-25.8
2022-09-20T14:23:13.277Z,-25.6
2022-09-20T14:25:14.402Z,-25.9
2022-09-20T14:27:15.315Z,-25.6
2022-09-20T14:29:16.774Z,-25.8
2022-09-20T14:31:18.593Z,-25.6
2022-09-20T14:35:20.581Z,-25.7
2022-09-20T14:41:24.255Z,-25.7
2022-09-20T14:43:25.496Z,-25.7
2022-09-20T14:45:26.542Z,-25.8
2022-09-20T14:47:27.916Z,-25.8
2022-09-20T14:49:29.026Z,-25.5
2022-09-20T14:51:30.088Z,-25.7
2022-09-20T14:53:31.377Z,-25.7
2022-09-20T14:55:36.406Z,-25.6
2022-09-20T14:57:33.807Z,-25.6
2022-09-20T14:59:35.510Z,-25.7
2022-09-20T15:01:37.313Z,-25.6
2022-09-20T15:03:38.820Z,-25.4
2022-09-20T15:05:39.690Z,-25.4
2022-09-20T15:07:40.965Z,-25.6
2022-09-20T15:09:41.835Z,-25.5
2022-09-20T15:11:43.464Z,-25.7
2022-09-20T15:13:44.997Z,-25.5
2022-09-20T15:17:47.750Z,-25.8
2022-09-20T15:19:49.512Z,-25.5
2022-09-20T15:21:50.868Z,-25.5
2022-09-20T15:23:51.807Z,-25.5
2022-09-20T15:25:53.309Z,-25.6
2022-09-20T15:27:54.651Z,-25.6
2022-09-20T15:29:56.036Z,-25.8
2022-09-20T15:31:57.415Z,-25.8
2022-09-20T15:33:58.808Z,-25.7
2022-09-20T15:38:02.194Z,-26
2022-09-20T15:40:04.086Z,-25.7
2022-09-20T15:42:05.645Z,-25.6
2022-09-20T15:44:07.041Z,-25.8
2022-09-20T15:48:09.464Z,-25.8
2022-09-20T15:50:10.756Z,-25.8
2022-09-20T15:54:13.125Z,-25.6
2022-09-20T15:56:15.083Z,-25.6
2022-09-20T15:58:16.743Z,-26
2022-09-20T16:00:17.834Z,-25.8
2022-09-20T16:02:18.907Z,-25.8
2022-09-20T16:04:19.967Z,-25.9
2022-09-20T16:06:21.713Z,-25.7
2022-09-20T16:08:23.469Z,-25.9
2022-09-20T16:10:25.262Z,-26
2022-09-20T16:12:26.304Z,-26.2
2022-09-20T16:14:27.749Z,-26
2022-09-20T16:16:29.064Z,-25.8
2022-09-20T16:20:31.465Z,-25.9
2022-09-20T16:22:33.123Z,-25.5
2022-09-20T16:24:34.636Z,-25.3
2022-09-20T16:28:37.900Z,-25.8
2022-09-20T16:30:39.446Z,-25.4
2022-09-20T16:32:40.467Z,-25.4
2022-09-20T16:34:41.503Z,-25.6
2022-09-20T16:36:42.449Z,-25.5
2022-09-20T16:38:43.965Z,-25.7
2022-09-20T16:40:45.281Z,-25.4
2022-09-20T16:42:50.203Z,-25.8
2022-09-20T16:44:48.421Z,-25.4
2022-09-20T16:48:51.187Z,-25.6
2022-09-20T16:52:53.460Z,-25.4
2022-09-20T16:54:54.456Z,-25.5
2022-09-20T16:56:55.515Z,-25.6
2022-09-20T16:58:59.709Z,-25.6
2022-09-20T17:00:57.623Z,-25.5
2022-09-20T17:02:59.327Z,-25.7
2022-09-20T17:05:00.549Z,-25.5
2022-09-20T17:07:01.992Z,-25.5
2022-09-20T17:09:03.668Z,-25.6
2022-09-20T17:11:05.147Z,-25.7
2022-09-20T17:13:06.802Z,-25.5
2022-09-20T17:15:07.748Z,-25.4
2022-09-20T17:19:10.108Z,-25.4
2022-09-20T17:21:11.958Z,-25.5
2022-09-20T17:23:13.624Z,-25.6
2022-09-20T17:25:14.690Z,-25.7
2022-09-20T17:27:15.707Z,-25.5
2022-09-20T17:29:17.066Z,-25.7
2022-09-20T17:31:18.499Z,-25.6
2022-09-20T17:32:02.277Z,-25.5
2022-09-20T17:36:04.723Z,-25.6
2022-09-20T17:40:07.454Z,-25.7
2022-09-20T17:42:08.551Z,-25.4
2022-09-20T17:46:10.935Z,-25.6
2022-09-20T17:48:12.851Z,-25.5
2022-09-20T17:50:13.923Z,-25.3
2022-09-20T17:52:15.279Z,-25.5
2022-09-20T17:56:18.119Z,-25.7
2022-09-20T17:58:19.431Z,-25.5
2022-09-20T18:00:21.383Z,-25.6
2022-09-20T18:02:23.218Z,-25.4
2022-09-20T18:06:25.610Z,-25.7
2022-09-20T18:08:26.763Z,-25.7
2022-09-20T18:12:30.430Z,-25.6
2022-09-20T18:14:31.452Z,-25.4
2022-09-20T18:16:32.738Z,-25.5
2022-09-20T18:18:33.702Z,-25.7
2022-09-20T18:20:34.945Z,-25.6
2022-09-20T18:24:38.524Z,-25.5
2022-09-20T18:26:39.063Z,-25.7
2022-09-20T18:28:40.821Z,-25.5
2022-09-20T18:30:41.794Z,-25.6
2022-09-20T18:32:43.481Z,-25.6
2022-09-20T18:34:44.967Z,-25.5
2022-09-20T18:36:46.559Z,-25.5
2022-09-20T18:38:47.843Z,-25.5
2022-09-20T18:40:49.015Z,-25.7
2022-09-20T18:42:50.354Z,-25.8
2022-09-20T18:44:52.149Z,-25.6
2022-09-20T18:46:53.795Z,-25.6
2022-09-20T18:48:55.700Z,-25.6
2022-09-20T18:50:57.263Z,-25.7
2022-09-20T18:52:58.286Z,-25.6
2022-09-20T18:54:59.588Z,-25.7
2022-09-20T18:57:01.452Z,-25.6
2022-09-20T18:59:02.663Z,-25.7
2022-09-20T19:01:04.417Z,-25.5
2022-09-20T19:03:10.090Z,-25.4
2022-09-20T19:07:08.531Z,-25.5
2022-09-20T19:11:11.208Z,-25.4
2022-09-20T19:13:12.346Z,-25.4
2022-09-20T19:15:14.266Z,-25.5
2022-09-20T19:17:15.794Z,-25.5
2022-09-20T19:23:20.248Z,-25.6
2022-09-20T19:25:21.995Z,-25.7
2022-09-20T19:27:22.929Z,-25.6
2022-09-20T19:29:24.104Z,-25.8
2022-09-20T19:31:25.435Z,-25.7
2022-09-20T19:33:26.710Z,-25.5
2022-09-20T19:35:28.446Z,-25.7
2022-09-20T19:37:29.535Z,-25.6
2022-09-20T19:39:30.802Z,-25.7
2022-09-20T19:41:31.891Z,-25.5
2022-09-20T19:43:32.962Z,-25.5
2022-09-20T19:45:33.978Z,-25.8
2022-09-20T19:47:35.068Z,-25.6
2022-09-20T19:49:36.506Z,-25.6
2022-09-20T19:51:37.474Z,-25.7
2022-09-20T19:53:39.380Z,-25.8
2022-09-20T19:55:41.089Z,-25.5
2022-09-20T19:57:42.187Z,-25.7
2022-09-20T19:59:43.341Z,-25.6
2022-09-20T20:03:47.676Z,-25.7
2022-09-20T20:05:47.570Z,-25.8
2022-09-20T20:07:49.473Z,-25.8
2022-09-20T20:09:50.969Z,-25.4
2022-09-20T20:11:51.895Z,-25.7
2022-09-20T20:13:53.588Z,-25.3
2022-09-20T20:15:54.981Z,-25.6
2022-09-20T20:17:56.465Z,-25.4
2022-09-20T20:19:57.528Z,-25.8
2022-09-20T20:21:58.557Z,-25.6
2022-09-20T20:26:01.788Z,-25.4
2022-09-20T20:28:03.520Z,-25.7
2022-09-20T20:30:04.857Z,-25.6
2022-09-20T20:32:05.964Z,-25.8
2022-09-20T20:34:07.617Z,-25.6
2022-09-20T20:36:09.464Z,-25.9
2022-09-20T20:38:11.392Z,-25.6
2022-09-20T20:40:13.030Z,-25.8
2022-09-20T20:42:14.821Z,-25.7
2022-09-20T20:44:16.244Z,-25.6
2022-09-20T20:46:17.816Z,-25.5
2022-09-20T20:48:19.381Z,-25.5
2022-09-20T20:52:21.643Z,-25.7
2022-09-20T20:54:22.808Z,-25.7
2022-09-20T20:56:24.359Z,-25.8
2022-09-20T20:58:25.459Z,-25.5
2022-09-20T21:04:30.211Z,-25.8
2022-09-20T21:06:31.690Z,-25.6
2022-09-20T21:08:32.799Z,-25.8
2022-09-20T21:10:34.038Z,-25.6
2022-09-20T21:12:35.635Z,-25.8
2022-09-20T21:14:36.985Z,-25.7
2022-09-20T21:18:39.717Z,-25.8
2022-09-20T21:20:41.256Z,-25.7
2022-09-20T21:22:42.963Z,-25.7
2022-09-20T21:24:44.844Z,-25.7
2022-09-20T21:26:46.690Z,-25.7
2022-09-20T21:28:47.826Z,-25.9
2022-09-20T21:30:49.716Z,-26
2022-09-20T21:32:50.885Z,-25.7
2022-09-20T21:34:52.522Z,-26.1
2022-09-20T21:36:54.325Z,-25.7
2022-09-20T21:38:55.547Z,-25.7
2022-09-20T21:40:57.433Z,-26.1
2022-09-20T21:42:58.404Z,-25.9
2022-09-20T21:44:59.732Z,-25.8
2022-09-20T21:47:01.086Z,-25.8
2022-09-20T21:51:03.342Z,-25.8
2022-09-20T21:53:04.638Z,-25.8
2022-09-20T21:55:06.679Z,-25.9
2022-09-20T21:57:08.091Z,-25.8
2022-09-20T21:59:09.915Z,-25.9
2022-09-20T22:01:11.849Z,-25.7
2022-09-20T22:03:13.305Z,-25.7
2022-09-20T22:05:15.465Z,-25.8
2022-09-20T22:07:17.102Z,-25.9
2022-09-20T22:09:18.512Z,-26
2022-09-20T22:11:20.231Z,-25.7
2022-09-20T22:13:21.403Z,-25.7
2022-09-20T22:15:23.227Z,-26
2022-09-20T22:17:24.488Z,-25.7
2022-09-20T22:19:26.115Z,-25.9
2022-09-20T22:21:27.049Z,-25.8
2022-09-20T22:23:28.847Z,-25.6
2022-09-20T22:25:30.486Z,-25.7
2022-09-20T22:27:31.547Z,-25.8
2022-09-20T22:29:33.394Z,-25.8
2022-09-20T22:31:34.991Z,-25.8
2022-09-20T22:33:36.704Z,-25.8
2022-09-20T22:35:38.217Z,-25.5
2022-09-20T22:37:40.274Z,-25.7
2022-09-20T22:39:41.355Z,-25.7
2022-09-20T22:43:44.548Z,-25.5
2022-09-20T22:45:46.062Z,-25.5
2022-09-20T22:47:47.311Z,-25.9
2022-09-20T22:49:48.451Z,-25.9
2022-09-20T22:51:49.660Z,-26.1
2022-09-20T22:53:50.805Z,-25.8
2022-09-20T22:55:52.149Z,-25.7
2022-09-20T22:57:53.375Z,-25.9
2022-09-20T22:59:54.891Z,-25.6
2022-09-20T23:01:56.074Z,-25.9
2022-09-20T23:03:57.821Z,-25.9
2022-09-20T23:05:59.414Z,-25.5
2022-09-20T23:08:01.207Z,-25.6
2022-09-20T23:10:02.351Z,-25.7
2022-09-20T23:12:04.160Z,-25.6
2022-09-20T23:16:06.536Z,-25.7
2022-09-20T23:18:08.178Z,-25.6
2022-09-20T23:20:09.351Z,-25.9
2022-09-20T23:22:10.443Z,-25.8
2022-09-20T23:26:13.484Z,-25.9
2022-09-20T23:28:15.268Z,-25.9
2022-09-20T23:30:16.458Z,-25.7
2022-09-20T23:32:18.146Z,-25.9
2022-09-20T23:34:19.980Z,-25.9
2022-09-20T23:36:21.477Z,-26.1
2022-09-20T23:38:22.536Z,-26
2022-09-20T23:40:23.842Z,-26.1
2022-09-20T23:42:25.499Z,-25.9
2022-09-20T23:44:27.142Z,-25.9
2022-09-20T23:46:28.774Z,-26.2
2022-09-20T23:48:30.119Z,-26.2
2022-09-20T23:54:35.193Z,-26.1
2022-09-20T23:56:36.287Z,-26.2
2022-09-20T23:58:38.098Z,-26.1
